Time;durP1;ratioP1;P1;durP2;ratioP2;P2;SDS_P1;SDS_P2;PMS_P1;PMS_P2;Temp;Humidity;BMP_temperature;BMP_pressure;BME280_temperature;BME280_humidity;BME280_pressure;Samples;Min_cycle;Max_cycle;Signal;HPM_P1;HPM_P2
2022/04/22 00:01:30;;;;;;;19.02;7.05;;;;;;;;;;5078264;28;20028;-75
2022/04/22 00:03:57;;;;;;;15.93;7.97;;;;;;;;;;5081593;28;20099;-76
2022/04/22 00:06:24;;;;;;;13.63;8.80;;;;;;;;;;5075342;28;20107;-75
2022/04/22 00:08:50;;;;;;;12.65;7.30;;;;;;;;;;5078141;28;20043;-76
2022/04/22 00:11:32;;;;;;;15.57;7.10;;;;;;;;;;5075377;28;20036;-76
2022/04/22 00:14:02;;;;;;;13.95;7.22;;;;;;;;;;5080611;28;20040;-77
2022/04/22 00:16:30;;;;;;;16.92;8.43;;;;;;;;;;5076081;28;20506;-77
2022/04/22 00:18:56;;;;;;;12.75;7.80;;;;;;;;;;5080100;28;20333;-75
2022/04/22 00:21:22;;;;;;;14.93;8.73;;;;;;;;;;5084331;28;20048;-76
2022/04/22 00:23:49;;;;;;;13.65;8.43;;;;;;;;;;5076393;28;20386;-78
2022/04/22 00:26:15;;;;;;;15.60;9.65;;;;;;;;;;5077022;28;20036;-76
2022/04/22 00:28:41;;;;;;;13.23;8.25;;;;;;;;;;5072380;28;20029;-75
2022/04/22 00:31:07;;;;;;;21.63;8.32;;;;;;;;;;5078824;28;20028;-75
2022/04/22 00:33:33;;;;;;;15.70;7.88;;;;;;;;;;5076354;28;20672;-75
2022/04/22 00:36:00;;;;;;;13.98;7.55;;;;;;;;;;5073337;28;20080;-75
2022/04/22 00:38:26;;;;;;;13.82;7.47;;;;;;;;;;5076915;28;20109;-76
2022/04/22 00:40:56;;;;;;;15.88;8.00;;;;;;;;;;5076541;28;20021;-76
2022/04/22 00:43:23;;;;;;;16.52;8.10;;;;;;;;;;5074334;28;20052;-76
2022/04/22 00:45:50;;;;;;;13.70;7.65;;;;;;;;;;5075994;28;20017;-76
2022/04/22 00:48:18;;;;;;;17.38;8.85;;;;;;;;;;5075652;28;20039;-76
2022/04/22 00:50:44;;;;;;;15.05;7.82;;;;;;;;;;5077306;28;20028;-75
2022/04/22 00:53:11;;;;;;;13.10;8.13;;;;;;;;;;5077734;28;20051;-74
2022/04/22 00:55:38;;;;;;;14.95;7.82;;;;;;;;;;5078993;28;20032;-74
2022/04/22 00:58:05;;;;;;;13.77;8.40;;;;;;;;;;5076607;28;20896;-75
2022/04/22 01:00:31;;;;;;;16.15;7.85;;;;;;;;;;5078965;28;20017;-75
2022/04/22 01:02:57;;;;;;;12.45;8.18;;;;;;;;;;5079548;28;20078;-76
2022/04/22 01:10:55;;;;;;;19.70;8.35;;;;;;;;;;5078200;28;20035;-76
2022/04/22 01:13:21;;;;;;;13.00;7.40;;;;;;;;;;5080287;28;20100;-75
2022/04/22 01:15:48;;;;;;;15.25;7.38;;;;;;;;;;5080433;28;20037;-75
2022/04/22 01:18:15;;;;;;;16.63;8.07;;;;;;;;;;5077470;28;20025;-76
2022/04/22 01:20:41;;;;;;;18.00;8.32;;;;;;;;;;5080528;28;20081;-75
2022/04/22 01:23:07;;;;;;;17.88;8.38;;;;;;;;;;5079953;28;20025;-75
2022/04/22 01:25:33;;;;;;;15.05;7.70;;;;;;;;;;5078533;28;20497;-75
2022/04/22 01:28:00;;;;;;;19.17;8.23;;;;;;;;;;5080029;28;20073;-77
2022/04/22 01:30:26;;;;;;;13.77;7.68;;;;;;;;;;5079093;28;20470;-75
2022/04/22 01:32:54;;;;;;;13.45;7.65;;;;;;;;;;5076078;28;20020;-76
2022/04/22 01:35:21;;;;;;;12.68;8.98;;;;;;;;;;5080908;28;20107;-75
2022/04/22 01:37:47;;;;;;;13.63;8.30;;;;;;;;;;5079403;28;20081;-76
2022/04/22 01:40:14;;;;;;;18.63;8.48;;;;;;;;;;5079840;28;20115;-76
2022/04/22 01:42:40;;;;;;;15.77;8.52;;;;;;;;;;5074867;28;20366;-75
2022/04/22 01:45:07;;;;;;;18.70;8.73;;;;;;;;;;5080177;28;20044;-75
2022/04/22 01:47:33;;;;;;;16.75;7.45;;;;;;;;;;5082257;28;20027;-76
2022/04/22 01:49:59;;;;;;;16.05;7.50;;;;;;;;;;5079199;28;20024;-73
2022/04/22 01:52:27;;;;;;;12.98;8.15;;;;;;;;;;5077784;28;20475;-76
2022/04/22 01:54:55;;;;;;;11.40;7.80;;;;;;;;;;5094242;28;20371;-74
2022/04/22 01:57:21;;;;;;;11.70;7.70;;;;;;;;;;5074229;28;20367;-76
2022/04/22 01:59:48;;;;;;;14.65;7.82;;;;;;;;;;5076287;28;20099;-76
2022/04/22 02:02:14;;;;;;;14.80;7.68;;;;;;;;;;5077249;28;20941;-76
2022/04/22 02:04:41;;;;;;;16.83;8.52;;;;;;;;;;5078949;28;20374;-77
2022/04/22 02:07:07;;;;;;;13.60;7.53;;;;;;;;;;5078534;28;20028;-77
2022/04/22 02:09:33;;;;;;;12.35;7.55;;;;;;;;;;5077834;28;20501;-75
2022/04/22 02:11:59;;;;;;;14.02;7.72;;;;;;;;;;5077623;28;20039;-77
2022/04/22 02:14:26;;;;;;;18.80;8.15;;;;;;;;;;5077387;28;20053;-74
2022/04/22 02:16:56;;;;;;;14.40;7.38;;;;;;;;;;5079096;28;20043;-75
2022/04/22 02:19:23;;;;;;;17.73;7.50;;;;;;;;;;5076777;28;20021;-75
2022/04/22 02:21:49;;;;;;;18.27;7.93;;;;;;;;;;5075278;28;20476;-76
2022/04/22 02:24:16;;;;;;;19.40;8.18;;;;;;;;;;5077728;28;20028;-75
2022/04/22 02:29:27;;;;;;;13.00;7.50;;;;;;;;;;5077755;28;20043;-75
2022/04/22 02:31:53;;;;;;;34.42;9.25;;;;;;;;;;5077528;28;20398;-75
2022/04/22 02:34:25;;;;;;;15.77;7.75;;;;;;;;;;5071660;28;20024;-76
2022/04/22 02:36:52;;;;;;;16.67;7.47;;;;;;;;;;5080486;28;20032;-75
2022/04/22 02:39:19;;;;;;;16.27;7.28;;;;;;;;;;5075174;28;20035;-76
2022/04/22 02:47:14;;;;;;;15.38;7.75;;;;;;;;;;5077711;28;20564;-75
2022/04/22 02:49:44;;;;;;;16.75;8.00;;;;;;;;;;5079269;28;20032;-75
2022/04/22 02:52:11;;;;;;;14.77;9.07;;;;;;;;;;5076033;28;20031;-76
2022/04/22 02:54:37;;;;;;;15.52;7.97;;;;;;;;;;5078310;28;20036;-76
2022/04/22 02:57:03;;;;;;;14.48;7.22;;;;;;;;;;5075824;28;20073;-76
2022/04/22 02:59:30;;;;;;;17.08;7.75;;;;;;;;;;5077977;28;20025;-76
2022/04/22 03:01:56;;;;;;;16.05;7.78;;;;;;;;;;5075429;28;20028;-76
2022/04/22 03:04:22;;;;;;;15.70;6.95;;;;;;;;;;5073721;28;20161;-75
2022/04/22 03:06:49;;;;;;;15.25;7.97;;;;;;;;;;5072897;28;20039;-77
2022/04/22 03:09:15;;;;;;;16.45;7.60;;;;;;;;;;5078556;28;20104;-75
2022/04/22 03:11:41;;;;;;;13.60;6.95;;;;;;;;;;5083933;28;20071;-76
2022/04/22 03:14:07;;;;;;;17.63;8.23;;;;;;;;;;5078094;28;20044;-76
2022/04/22 03:16:35;;;;;;;19.80;8.02;;;;;;;;;;5077377;28;20058;-75
2022/04/22 03:19:01;;;;;;;12.40;6.97;;;;;;;;;;5074391;28;20429;-76
2022/04/22 03:21:27;;;;;;;12.07;6.57;;;;;;;;;;5076972;28;20071;-75
2022/04/22 03:23:53;;;;;;;11.18;7.32;;;;;;;;;;5078651;28;20021;-76
2022/04/22 03:26:19;;;;;;;15.80;7.20;;;;;;;;;;5079282;28;20016;-75
2022/04/22 03:28:46;;;;;;;14.40;6.90;;;;;;;;;;5073767;28;20029;-76
2022/04/22 03:31:13;;;;;;;15.85;7.18;;;;;;;;;;5074962;28;20024;-75
2022/04/22 03:33:39;;;;;;;20.95;7.72;;;;;;;;;;5074182;28;20032;-75
2022/04/22 03:36:05;;;;;;;14.68;7.22;;;;;;;;;;5075250;28;20031;-74
2022/04/22 03:38:31;;;;;;;13.98;7.03;;;;;;;;;;5082788;28;20024;-75
2022/04/22 03:40:57;;;;;;;14.40;6.97;;;;;;;;;;5076388;28;20035;-75
2022/04/22 03:43:25;;;;;;;12.43;7.28;;;;;;;;;;5077598;28;20020;-74
2022/04/22 03:45:52;;;;;;;13.18;6.97;;;;;;;;;;5079049;28;20056;-76
2022/04/22 03:48:18;;;;;;;10.25;6.22;;;;;;;;;;5075429;28;20490;-75
2022/04/22 03:50:44;;;;;;;12.38;7.05;;;;;;;;;;5078538;28;20037;-77
2022/04/22 03:53:14;;;;;;;18.63;7.25;;;;;;;;;;5070381;28;20028;-75
2022/04/22 03:55:40;;;;;;;9.85;6.38;;;;;;;;;;5077641;28;20124;-75
2022/04/22 03:58:13;;;;;;;9.90;5.97;;;;;;;;;;5077035;28;20032;-76
2022/04/22 04:00:42;;;;;;;10.63;6.97;;;;;;;;;;5074655;28;20024;-76
2022/04/22 04:03:12;;;;;;;14.10;7.18;;;;;;;;;;5089570;28;20025;-76
2022/04/22 04:05:41;;;;;;;14.70;7.18;;;;;;;;;;5073591;28;20078;-76
2022/04/22 04:08:10;;;;;;;10.95;6.50;;;;;;;;;;5075380;28;20092;-75
2022/04/22 04:16:06;;;;;;;15.05;6.80;;;;;;;;;;5075774;28;20043;-75
2022/04/22 04:18:33;;;;;;;11.55;6.97;;;;;;;;;;5074258;28;20108;-75
2022/04/22 04:23:45;;;;;;;15.45;7.70;;;;;;;;;;5073942;28;20090;-74
2022/04/22 04:26:12;;;;;;;14.02;8.13;;;;;;;;;;5073783;28;20032;-75
2022/04/22 04:28:39;;;;;;;16.10;7.63;;;;;;;;;;5071542;28;20032;-75
2022/04/22 04:31:06;;;;;;;11.27;7.35;;;;;;;;;;5072087;28;20043;-75
2022/04/22 04:33:32;;;;;;;14.88;7.50;;;;;;;;;;5074117;28;20027;-76
2022/04/22 04:35:59;;;;;;;12.43;7.15;;;;;;;;;;5076896;28;20032;-75
2022/04/22 04:38:27;;;;;;;11.88;8.10;;;;;;;;;;5076881;28;20051;-74
2022/04/22 04:40:53;;;;;;;13.20;7.90;;;;;;;;;;5074831;28;20057;-76
2022/04/22 04:43:20;;;;;;;17.23;8.10;;;;;;;;;;5075336;28;20031;-75
2022/04/22 04:45:46;;;;;;;14.15;8.68;;;;;;;;;;5074192;28;20391;-75
2022/04/22 04:48:12;;;;;;;14.55;8.10;;;;;;;;;;5075911;28;20015;-75
2022/04/22 04:50:40;;;;;;;15.75;8.60;;;;;;;;;;5073992;28;20454;-76
2022/04/22 04:53:06;;;;;;;12.38;8.65;;;;;;;;;;5074855;28;20059;-74
2022/04/22 04:55:32;;;;;;;16.02;8.75;;;;;;;;;;5076934;28;20028;-74
2022/04/22 04:57:59;;;;;;;17.13;8.30;;;;;;;;;;5076182;28;20169;-74
2022/04/22 05:00:25;;;;;;;15.10;8.30;;;;;;;;;;5094050;28;20024;-76
2022/04/22 05:02:51;;;;;;;14.80;8.23;;;;;;;;;;5076569;28;20021;-75
2022/04/22 05:05:17;;;;;;;12.80;8.18;;;;;;;;;;5077369;28;20543;-74
2022/04/22 05:07:47;;;;;;;11.02;7.95;;;;;;;;;;5077740;28;20028;-76
2022/04/22 05:10:14;;;;;;;14.70;8.80;;;;;;;;;;5077667;28;20013;-76
2022/04/22 05:12:40;;;;;;;15.48;7.80;;;;;;;;;;5077677;28;20035;-75
2022/04/22 05:15:08;;;;;;;13.98;7.40;;;;;;;;;;5072866;28;20056;-74
2022/04/22 05:17:34;;;;;;;14.55;8.02;;;;;;;;;;5076418;28;20036;-75
2022/04/22 05:20:00;;;;;;;14.15;8.68;;;;;;;;;;5075745;28;20140;-75
2022/04/22 05:22:26;;;;;;;16.70;7.10;;;;;;;;;;5080706;28;20020;-75
2022/04/22 05:24:52;;;;;;;15.65;8.50;;;;;;;;;;5071341;28;20025;-75
2022/04/22 05:27:18;;;;;;;15.27;7.80;;;;;;;;;;5075901;28;20028;-76
2022/04/22 05:32:38;;;;;;;16.40;8.75;;;;;;;;;;5073762;28;21521;-76
2022/04/22 05:35:05;;;;;;;11.80;7.45;;;;;;;;;;5073840;28;20023;-75
2022/04/22 05:37:43;;;;;;;17.77;9.02;;;;;;;;;;5075065;28;20025;-75
2022/04/22 05:40:10;;;;;;;14.95;8.30;;;;;;;;;;5077131;28;20016;-75
2022/04/22 05:42:39;;;;;;;15.75;9.20;;;;;;;;;;5081491;28;20163;-75
2022/04/22 05:45:09;;;;;;;15.90;7.97;;;;;;;;;;5079783;28;20451;-77
2022/04/22 05:47:35;;;;;;;15.40;8.25;;;;;;;;;;5083847;28;20028;-75
2022/04/22 05:50:02;;;;;;;16.80;8.85;;;;;;;;;;5078120;28;20115;-76
2022/04/22 05:52:28;;;;;;;15.50;8.93;;;;;;;;;;5081515;28;20032;-74
2022/04/22 05:54:54;;;;;;;14.13;8.52;;;;;;;;;;5078848;28;20108;-77
2022/04/22 05:57:21;;;;;;;16.77;9.35;;;;;;;;;;5079366;28;20054;-76
2022/04/22 05:59:48;;;;;;;18.45;9.35;;;;;;;;;;5076267;28;20024;-75
2022/04/22 06:02:14;;;;;;;15.93;8.38;;;;;;;;;;5080313;28;20025;-75
2022/04/22 06:04:40;;;;;;;15.93;9.73;;;;;;;;;;5075799;28;20031;-76
2022/04/22 06:07:06;;;;;;;14.93;9.43;;;;;;;;;;5077807;28;20025;-75
2022/04/22 06:12:17;;;;;;;15.70;8.52;;;;;;;;;;5077509;28;20047;-76
2022/04/22 06:14:46;;;;;;;16.33;9.70;;;;;;;;;;5078688;28;20071;-75
2022/04/22 06:17:12;;;;;;;17.83;8.90;;;;;;;;;;5075735;28;20036;-76
2022/04/22 06:19:38;;;;;;;17.48;9.63;;;;;;;;;;5078259;28;20017;-76
2022/04/22 06:22:05;;;;;;;17.42;9.55;;;;;;;;;;5079566;28;20025;-75
2022/04/22 06:24:31;;;;;;;16.10;8.85;;;;;;;;;;5078406;28;20104;-76
2022/04/22 06:26:57;;;;;;;18.55;9.88;;;;;;;;;;5080884;28;20048;-75
2022/04/22 06:29:23;;;;;;;19.10;9.65;;;;;;;;;;5080380;28;20033;-75
2022/04/22 06:31:49;;;;;;;15.43;9.30;;;;;;;;;;5075468;28;20024;-76
2022/04/22 06:34:15;;;;;;;15.05;9.30;;;;;;;;;;5080920;28;20035;-76
2022/04/22 06:36:42;;;;;;;17.70;9.93;;;;;;;;;;5078023;28;20032;-75
2022/04/22 06:39:08;;;;;;;17.48;8.95;;;;;;;;;;5078229;28;20039;-77
2022/04/22 06:47:05;;;;;;;15.25;8.57;;;;;;;;;;5070064;28;20442;-76
2022/04/22 06:49:31;;;;;;;15.13;8.95;;;;;;;;;;5081199;28;20604;-76
2022/04/22 06:51:58;;;;;;;22.05;9.23;;;;;;;;;;5078223;28;20047;-75
2022/04/22 06:54:24;;;;;;;18.73;8.60;;;;;;;;;;5073677;28;20033;-76
2022/04/22 06:56:50;;;;;;;16.63;9.02;;;;;;;;;;5073705;28;20044;-75
2022/04/22 06:59:19;;;;;;;14.75;8.65;;;;;;;;;;5079302;28;20088;-76
2022/04/22 07:01:46;;;;;;;18.13;9.75;;;;;;;;;;5088941;28;20024;-76
2022/04/22 07:04:13;;;;;;;15.13;9.55;;;;;;;;;;5074869;28;20475;-76
2022/04/22 07:06:39;;;;;;;19.38;10.10;;;;;;;;;;5071916;28;20446;-75
2022/04/22 07:09:05;;;;;;;17.75;8.27;;;;;;;;;;5066002;28;20028;-75
2022/04/22 07:11:32;;;;;;;14.23;8.35;;;;;;;;;;5079893;28;20501;-76
2022/04/22 07:14:01;;;;;;;16.70;8.93;;;;;;;;;;5074303;28;20036;-74
2022/04/22 07:16:27;;;;;;;17.58;9.13;;;;;;;;;;5076034;28;20060;-77
2022/04/22 07:18:55;;;;;;;13.38;9.63;;;;;;;;;;5071740;28;20326;-76
2022/04/22 07:21:21;;;;;;;13.68;8.38;;;;;;;;;;5070353;28;20020;-77
2022/04/22 07:23:48;;;;;;;13.38;8.63;;;;;;;;;;5073934;28;20020;-77
2022/04/22 07:26:18;;;;;;;15.60;8.88;;;;;;;;;;5075854;28;20422;-78
2022/04/22 07:28:48;;;;;;;15.18;8.77;;;;;;;;;;5070787;28;20101;-78
2022/04/22 07:31:21;;;;;;;17.02;9.50;;;;;;;;;;5074380;28;20024;-79
2022/04/22 07:33:49;;;;;;;13.45;8.05;;;;;;;;;;5074459;28;20036;-77
2022/04/22 07:36:15;;;;;;;15.88;9.90;;;;;;;;;;5070271;28;20069;-77
2022/04/22 07:38:41;;;;;;;14.88;8.07;;;;;;;;;;5065077;28;20032;-76
2022/04/22 07:41:08;;;;;;;14.20;9.02;;;;;;;;;;5066756;28;20046;-77
2022/04/22 07:49:05;;;;;;;14.70;8.18;;;;;;;;;;5070941;28;20165;-80
2022/04/22 07:51:32;;;;;;;11.13;7.20;;;;;;;;;;5073126;28;20036;-79
2022/04/22 07:53:58;;;;;;;9.00;6.72;;;;;;;;;;5073129;28;20063;-76
2022/04/22 07:56:24;;;;;;;8.77;6.70;;;;;;;;;;5078491;28;20074;-76
2022/04/22 07:58:51;;;;;;;9.70;7.32;;;;;;;;;;5067074;28;20024;-78
2022/04/22 08:01:18;;;;;;;9.60;6.93;;;;;;;;;;5076869;28;20033;-77
2022/04/22 08:03:44;;;;;;;13.77;6.53;;;;;;;;;;5070954;28;20020;-77
2022/04/22 08:06:11;;;;;;;15.43;6.53;;;;;;;;;;5068254;28;20078;-78
2022/04/22 08:08:37;;;;;;;9.27;5.57;;;;;;;;;;5079363;28;20392;-79
2022/04/22 08:11:03;;;;;;;5.97;5.10;;;;;;;;;;5077161;28;20035;-77
2022/04/22 08:13:29;;;;;;;9.68;6.68;;;;;;;;;;5076393;28;20040;-78
2022/04/22 08:15:55;;;;;;;7.82;5.32;;;;;;;;;;5080896;28;20024;-78
2022/04/22 08:18:21;;;;;;;9.25;6.13;;;;;;;;;;5068480;28;20028;-80
2022/04/22 08:20:48;;;;;;;6.45;5.32;;;;;;;;;;5070790;28;20028;-77
2022/04/22 08:23:14;;;;;;;7.88;5.03;;;;;;;;;;5080793;28;20032;-80
2022/04/22 08:25:41;;;;;;;13.70;6.10;;;;;;;;;;5082149;28;20025;-81
2022/04/22 08:28:07;;;;;;;10.45;5.65;;;;;;;;;;5084819;28;20080;-82
2022/04/22 08:30:35;;;;;;;9.80;6.20;;;;;;;;;;5087285;28;20052;-79
2022/04/22 08:33:01;;;;;;;10.23;6.03;;;;;;;;;;5085045;28;20008;-81
2022/04/22 08:35:27;;;;;;;9.70;6.20;;;;;;;;;;5090678;28;20097;-79
2022/04/22 08:37:53;;;;;;;16.40;7.22;;;;;;;;;;5089201;28;20021;-80
2022/04/22 08:40:20;;;;;;;12.23;6.40;;;;;;;;;;5087884;28;20020;-81
2022/04/22 08:42:47;;;;;;;9.38;6.00;;;;;;;;;;5081224;28;20074;-80
2022/04/22 08:45:13;;;;;;;10.07;7.20;;;;;;;;;;5082720;28;20025;-79
2022/04/22 08:50:31;;;;;;;9.68;6.10;;;;;;;;;;5076266;28;20035;-78
2022/04/22 08:53:03;;;;;;;7.22;5.38;;;;;;;;;;5084886;28;20055;-80
2022/04/22 08:55:30;;;;;;;9.63;5.95;;;;;;;;;;5079478;28;20037;-78
2022/04/22 08:57:56;;;;;;;13.48;5.60;;;;;;;;;;5072960;28;20044;-78
2022/04/22 09:00:22;;;;;;;9.18;5.78;;;;;;;;;;5076128;28;20060;-79
2022/04/22 09:02:49;;;;;;;8.95;5.28;;;;;;;;;;5075670;28;20029;-79
2022/04/22 09:05:15;;;;;;;10.10;5.05;;;;;;;;;;5082599;28;20058;-80
2022/04/22 09:07:42;;;;;;;14.68;5.30;;;;;;;;;;5095884;28;20066;-78
2022/04/22 09:10:08;;;;;;;7.07;4.97;;;;;;;;;;5071791;28;20036;-78
2022/04/22 09:12:35;;;;;;;6.80;5.07;;;;;;;;;;5074058;28;20037;-76
2022/04/22 09:15:01;;;;;;;7.43;4.85;;;;;;;;;;5068979;28;20040;-77
2022/04/22 09:17:29;;;;;;;7.72;4.57;;;;;;;;;;5073528;28;20036;-76
2022/04/22 09:19:57;;;;;;;9.60;5.15;;;;;;;;;;5093442;28;20044;-75
2022/04/22 09:22:24;;;;;;;6.70;4.63;;;;;;;;;;5074837;28;20040;-76
2022/04/22 09:24:57;;;;;;;8.98;4.75;;;;;;;;;;5077005;28;20570;-77
2022/04/22 09:27:37;;;;;;;6.97;4.13;;;;;;;;;;5077725;28;20032;-76
2022/04/22 09:30:07;;;;;;;7.43;4.25;;;;;;;;;;5071273;28;20028;-76
2022/04/22 09:32:33;;;;;;;9.05;4.75;;;;;;;;;;5074261;28;20498;-77
2022/04/22 09:35:09;;;;;;;6.85;4.00;;;;;;;;;;5076198;28;20032;-75
2022/04/22 09:43:22;;;;;;;8.90;3.90;;;;;;;;;;5072245;28;20065;-77
2022/04/22 09:45:51;;;;;;;9.57;4.68;;;;;;;;;;5077109;28;20032;-78
2022/04/22 09:48:20;;;;;;;11.18;4.47;;;;;;;;;;5073951;28;20074;-76
2022/04/22 09:50:54;;;;;;;10.63;5.05;;;;;;;;;;5076058;28;20077;-77
2022/04/22 09:53:33;;;;;;;6.57;4.20;;;;;;;;;;5071967;28;20140;-77
2022/04/22 09:56:10;;;;;;;9.10;4.25;;;;;;;;;;5076930;28;20534;-77
2022/04/22 09:58:37;;;;;;;8.57;4.90;;;;;;;;;;5074608;28;20058;-77
2022/04/22 10:01:06;;;;;;;9.25;5.03;;;;;;;;;;5074320;28;20127;-77
2022/04/22 10:03:33;;;;;;;9.70;4.75;;;;;;;;;;5075511;28;20372;-78
2022/04/22 10:06:01;;;;;;;8.70;4.43;;;;;;;;;;5075042;28;20016;-76
2022/04/22 10:08:28;;;;;;;11.88;4.80;;;;;;;;;;5074404;28;20393;-77
2022/04/22 10:10:57;;;;;;;9.45;5.75;;;;;;;;;;5075551;28;20020;-76
2022/04/22 10:13:25;;;;;;;9.57;4.50;;;;;;;;;;5071467;28;20055;-77
2022/04/22 10:15:52;;;;;;;11.02;5.20;;;;;;;;;;5073821;28;20053;-76
2022/04/22 10:18:20;;;;;;;7.28;5.32;;;;;;;;;;5072534;28;20025;-75
2022/04/22 10:20:47;;;;;;;10.25;5.13;;;;;;;;;;5078982;28;20494;-76
2022/04/22 10:23:14;;;;;;;6.70;4.55;;;;;;;;;;5073782;28;20035;-77
2022/04/22 10:25:40;;;;;;;9.38;4.50;;;;;;;;;;5079743;28;20028;-77
2022/04/22 10:28:07;;;;;;;9.25;4.82;;;;;;;;;;5079844;28;20032;-75
2022/04/22 10:30:35;;;;;;;9.98;4.80;;;;;;;;;;5079806;28;20036;-75
2022/04/22 10:33:02;;;;;;;8.38;5.18;;;;;;;;;;5078415;28;20039;-75
2022/04/22 10:35:29;;;;;;;12.52;5.35;;;;;;;;;;5077934;28;20107;-77
2022/04/22 10:37:56;;;;;;;11.55;5.05;;;;;;;;;;5076679;28;20156;-76
2022/04/22 10:40:23;;;;;;;10.40;4.82;;;;;;;;;;5073883;28;20509;-76
2022/04/22 10:42:50;;;;;;;9.98;4.82;;;;;;;;;;5078987;28;20438;-76
2022/04/22 10:48:17;;;;;;;9.85;4.60;;;;;;;;;;5069531;28;20428;-76
2022/04/22 10:50:53;;;;;;;13.10;5.07;;;;;;;;;;5078096;28;20032;-76
2022/04/22 10:53:23;;;;;;;9.00;5.63;;;;;;;;;;5072447;28;20745;-76
2022/04/22 10:55:50;;;;;;;7.30;4.53;;;;;;;;;;5073985;28;20036;-76
2022/04/22 10:58:23;;;;;;;9.88;5.15;;;;;;;;;;5072557;28;20055;-76
2022/04/22 11:00:50;;;;;;;15.32;6.25;;;;;;;;;;5077449;28;20416;-75
2022/04/22 11:03:18;;;;;;;14.30;5.70;;;;;;;;;;5073009;28;20024;-76
2022/04/22 11:05:46;;;;;;;15.75;6.05;;;;;;;;;;5071016;28;20553;-76
2022/04/22 11:08:25;;;;;;;11.95;5.28;;;;;;;;;;5075956;28;20030;-76
2022/04/22 11:10:53;;;;;;;15.75;6.03;;;;;;;;;;5066449;28;20062;-77
2022/04/22 11:13:38;;;;;;;14.45;5.88;;;;;;;;;;5072610;28;20076;-77
2022/04/22 11:16:05;;;;;;;10.25;4.88;;;;;;;;;;5069445;28;20512;-77
2022/04/22 11:18:31;;;;;;;14.57;5.97;;;;;;;;;;5070098;28;20127;-76
2022/04/22 11:21:12;;;;;;;13.05;5.55;;;;;;;;;;5069092;28;20215;-77
2022/04/22 11:23:42;;;;;;;12.20;5.25;;;;;;;;;;5068115;28;20484;-77
2022/04/22 11:26:08;;;;;;;9.50;4.97;;;;;;;;;;5063528;28;20031;-78
2022/04/22 11:28:36;;;;;;;10.82;5.03;;;;;;;;;;5073943;28;20028;-77
2022/04/22 11:31:07;;;;;;;11.15;5.60;;;;;;;;;;5081502;28;20080;-76
2022/04/22 11:33:45;;;;;;;9.88;5.03;;;;;;;;;;5076787;28;20020;-79
2022/04/22 11:36:11;;;;;;;10.25;5.40;;;;;;;;;;5079863;28;20487;-78
2022/04/22 11:38:48;;;;;;;11.95;4.90;;;;;;;;;;5079443;28;20052;-77
2022/04/22 11:41:14;;;;;;;15.18;5.88;;;;;;;;;;5079504;28;20130;-78
2022/04/22 11:43:41;;;;;;;14.60;6.75;;;;;;;;;;5079934;28;20044;-76
2022/04/22 11:46:08;;;;;;;9.90;5.50;;;;;;;;;;5083283;28;20031;-77
2022/04/22 11:48:34;;;;;;;11.73;5.07;;;;;;;;;;5085159;28;20031;-74
2022/04/22 11:51:00;;;;;;;8.75;4.93;;;;;;;;;;5081294;28;20054;-77
2022/04/22 11:53:29;;;;;;;14.88;5.88;;;;;;;;;;5078941;28;20067;-76
2022/04/22 11:55:55;;;;;;;11.35;4.55;;;;;;;;;;5080219;28;20028;-76
2022/04/22 11:58:25;;;;;;;11.68;5.50;;;;;;;;;;5084642;28;20039;-75
2022/04/22 12:06:21;;;;;;;10.32;5.68;;;;;;;;;;5076447;28;20043;-75
2022/04/22 12:08:54;;;;;;;11.90;5.07;;;;;;;;;;5084477;28;20028;-74
2022/04/22 12:11:21;;;;;;;13.10;5.57;;;;;;;;;;5082565;28;20039;-73
2022/04/22 12:13:48;;;;;;;10.50;5.63;;;;;;;;;;5079390;28;20040;-74
2022/04/22 12:16:21;;;;;;;11.52;5.22;;;;;;;;;;5074544;28;20048;-75
2022/04/22 12:18:50;;;;;;;9.55;5.70;;;;;;;;;;5087545;28;20050;-74
2022/04/22 12:21:18;;;;;;;9.93;5.03;;;;;;;;;;5077489;28;20028;-73
2022/04/22 12:23:45;;;;;;;11.60;4.90;;;;;;;;;;5070095;28;20461;-74
2022/04/22 12:26:15;;;;;;;12.27;5.95;;;;;;;;;;5069911;28;20060;-73
2022/04/22 12:28:59;;;;;;;10.77;5.25;;;;;;;;;;5069579;28;20052;-74
2022/04/22 12:31:26;;;;;;;11.23;6.67;;;;;;;;;;5075054;28;20111;-73
2022/04/22 12:33:59;;;;;;;9.43;6.03;;;;;;;;;;5069312;28;20028;-73
2022/04/22 12:36:25;;;;;;;9.38;5.93;;;;;;;;;;5074130;28;20058;-73
2022/04/22 12:38:51;;;;;;;9.38;4.90;;;;;;;;;;5069916;28;21266;-74
2022/04/22 12:41:18;;;;;;;10.68;5.40;;;;;;;;;;5070216;28;20108;-74
2022/04/22 12:43:48;;;;;;;12.90;5.90;;;;;;;;;;5073508;28;20393;-75
2022/04/22 12:52:09;;;;;;;9.32;4.82;;;;;;;;;;5063080;28;20039;-76
2022/04/22 12:54:35;;;;;;;8.43;4.97;;;;;;;;;;5069516;28;20028;-76
2022/04/22 12:57:21;;;;;;;8.25;4.75;;;;;;;;;;5071089;28;20111;-74
2022/04/22 12:59:52;;;;;;;10.10;4.95;;;;;;;;;;5078062;28;20029;-78
2022/04/22 13:02:19;;;;;;;8.43;5.07;;;;;;;;;;5071171;28;20394;-74
2022/04/22 13:04:52;;;;;;;10.15;4.72;;;;;;;;;;5071179;28;20035;-77
2022/04/22 13:07:18;;;;;;;8.18;4.60;;;;;;;;;;5071712;28;20300;-80
2022/04/22 13:09:45;;;;;;;8.23;5.10;;;;;;;;;;5070056;28;20032;-76
2022/04/22 13:12:12;;;;;;;10.45;5.07;;;;;;;;;;5073871;28;20043;-76
2022/04/22 13:14:38;;;;;;;6.97;4.60;;;;;;;;;;5073670;28;20051;-79
2022/04/22 13:17:04;;;;;;;9.40;5.32;;;;;;;;;;5076795;28;20206;-77
2022/04/22 13:19:31;;;;;;;8.52;4.45;;;;;;;;;;5072613;28;20036;-76
2022/04/22 13:21:57;;;;;;;7.35;4.25;;;;;;;;;;5075978;28;20024;-74
2022/04/22 13:24:24;;;;;;;12.13;4.60;;;;;;;;;;5073795;28;20031;-76
2022/04/22 13:26:53;;;;;;;9.32;5.05;;;;;;;;;;5092322;28;20119;-74
2022/04/22 13:29:19;;;;;;;8.02;4.93;;;;;;;;;;5068942;28;20062;-79
2022/04/22 13:31:45;;;;;;;11.95;5.50;;;;;;;;;;5071337;28;20036;-78
2022/04/22 13:34:11;;;;;;;9.15;4.50;;;;;;;;;;5065654;28;20522;-77
2022/04/22 13:36:38;;;;;;;6.03;4.30;;;;;;;;;;5075470;28;20473;-75
2022/04/22 13:39:04;;;;;;;7.53;4.10;;;;;;;;;;5064762;28;20580;-77
2022/04/22 13:41:30;;;;;;;10.40;4.25;;;;;;;;;;5060022;28;20504;-77
2022/04/22 13:43:56;;;;;;;10.90;4.80;;;;;;;;;;5070311;28;20443;-75
2022/04/22 13:54:36;;;;;;;9.57;4.55;;;;;;;;;;5073620;28;20062;-76
2022/04/22 13:57:02;;;;;;;7.57;4.28;;;;;;;;;;5068795;28;20486;-78
2022/04/22 13:59:29;;;;;;;7.55;4.25;;;;;;;;;;5072390;28;20028;-80
2022/04/22 14:01:55;;;;;;;6.53;3.65;;;;;;;;;;5075877;28;20028;-75
2022/04/22 14:04:21;;;;;;;7.70;4.35;;;;;;;;;;5070538;28;20477;-78
2022/04/22 14:06:48;;;;;;;7.38;4.07;;;;;;;;;;5069245;28;20126;-78
2022/04/22 14:09:14;;;;;;;9.25;4.10;;;;;;;;;;5063349;28;20076;-74
2022/04/22 14:11:40;;;;;;;7.35;4.10;;;;;;;;;;5071581;28;20081;-79
2022/04/22 14:14:08;;;;;;;8.38;4.07;;;;;;;;;;5061499;28;20104;-76
2022/04/22 14:16:34;;;;;;;8.93;3.70;;;;;;;;;;5055088;28;20073;-76
2022/04/22 14:19:00;;;;;;;6.88;4.72;;;;;;;;;;5065153;28;20024;-76
2022/04/22 14:21:27;;;;;;;7.45;4.00;;;;;;;;;;5063025;28;20096;-76
2022/04/22 14:23:53;;;;;;;8.48;3.45;;;;;;;;;;5065541;28;20032;-76
2022/04/22 14:26:19;;;;;;;7.10;4.20;;;;;;;;;;5079673;28;20035;-76
2022/04/22 14:28:46;;;;;;;8.98;3.90;;;;;;;;;;5062699;28;20036;-77
2022/04/22 14:31:13;;;;;;;7.00;3.75;;;;;;;;;;5072799;28;20480;-76
2022/04/22 14:33:40;;;;;;;9.68;3.70;;;;;;;;;;5074103;28;20502;-74
2022/04/22 14:36:06;;;;;;;6.47;4.15;;;;;;;;;;5077047;28;20032;-75
2022/04/22 14:38:32;;;;;;;8.05;4.13;;;;;;;;;;5074689;28;20032;-77
2022/04/22 14:40:58;;;;;;;10.80;4.80;;;;;;;;;;5071053;28;20468;-76
2022/04/22 14:43:24;;;;;;;11.85;4.10;;;;;;;;;;5072670;28;20024;-75
2022/04/22 14:45:50;;;;;;;7.13;4.22;;;;;;;;;;5073746;28;20055;-78
2022/04/22 14:48:17;;;;;;;7.03;4.10;;;;;;;;;;5075697;28;20498;-78
2022/04/22 14:50:43;;;;;;;10.95;4.03;;;;;;;;;;5075551;28;20484;-79
2022/04/22 14:53:09;;;;;;;6.80;3.55;;;;;;;;;;5077219;28;20037;-75
2022/04/22 14:55:36;;;;;;;11.10;4.63;;;;;;;;;;5074799;28;20116;-77
2022/04/22 14:58:03;;;;;;;7.47;4.20;;;;;;;;;;5076467;28;20024;-77
2022/04/22 15:00:29;;;;;;;7.53;3.90;;;;;;;;;;5071619;28;20028;-77
2022/04/22 15:02:55;;;;;;;5.93;4.05;;;;;;;;;;5075713;28;20116;-78
2022/04/22 15:05:21;;;;;;;7.38;3.95;;;;;;;;;;5075647;28;20474;-78
2022/04/22 15:07:47;;;;;;;11.00;3.80;;;;;;;;;;5078016;28;20043;-78
2022/04/22 15:10:14;;;;;;;5.97;3.60;;;;;;;;;;5074974;28;20055;-77
2022/04/22 15:12:40;;;;;;;7.57;4.28;;;;;;;;;;5069081;28;20491;-77
2022/04/22 15:15:06;;;;;;;7.65;4.43;;;;;;;;;;5068279;28;20139;-75
2022/04/22 15:25:47;;;;;;;10.52;3.67;;;;;;;;;;5079790;28;20398;-78
2022/04/22 15:28:13;;;;;;;8.82;3.88;;;;;;;;;;5080296;28;20020;-76
2022/04/22 15:30:58;;;;;;;5.60;3.75;;;;;;;;;;5079994;28;20024;-79
2022/04/22 15:33:24;;;;;;;9.32;3.97;;;;;;;;;;5080238;28;20115;-75
2022/04/22 15:35:50;;;;;;;8.00;4.22;;;;;;;;;;5072298;28;20394;-73
2022/04/22 15:38:16;;;;;;;11.25;3.67;;;;;;;;;;5067298;28;20451;-72
2022/04/22 15:40:43;;;;;;;8.82;4.40;;;;;;;;;;5076553;28;20032;-72
2022/04/22 15:43:10;;;;;;;6.82;3.72;;;;;;;;;;5086309;28;20031;-74
2022/04/22 15:45:36;;;;;;;6.22;3.67;;;;;;;;;;5079317;28;20512;-73
2022/04/22 15:48:02;;;;;;;5.15;3.70;;;;;;;;;;5075937;28;20125;-72
2022/04/22 15:50:28;;;;;;;6.47;3.63;;;;;;;;;;5079781;28;20047;-73
2022/04/22 15:52:56;;;;;;;6.80;3.63;;;;;;;;;;5085831;28;20041;-73